Albert J Bourg — WV8069 — position and weather

sailwx.info

Track history (hours):
 
Tides and Currents Weather Stations Pressure Air Temp Water Temp Dewpoint Dewpoint Depression Visibility Wind Speed Wind Dir Waves Ship Positions

Albert J Bourg

Owner: Alpha VesselCo, LLC, Suffolk, VA. More information available from US FCC via Universal Licensing System and Coast Guard Vessel Documentation Center.

Last reported at 2018-Jul-18 16:13 UTC. Time now 2018-Jul-19 13:02 UTC.
Position N 29°35' W 092°18'.

Length 49 m; draft 3 m.

Type: Fishing. MMSI: 367088240.

Date/timePositionNaut miles runAvg speedWind from/ knotsBaromVisibWave heightAir tempDewpointWater temp
2018-Jul-18 16:13N 29°35' W 092°18'3 7.7
2018-Jul-18 15:50N 29°37' W 092°17'3 8.2
2018-Jul-18 15:29N 29°40' W 092°15'4 8.6
2018-Jul-18 15:00N 29°44' W 092°15'510.0
2018-Jul-18 14:31N 29°47' W 092°10'3 3.0
2018-Jul-18 13:29N 29°49' W 092°08'0 0.0
2018-Jul-18 12:59N 29°49' W 092°08'0 0.0
2018-Jul-18 12:29N 29°49' W 092°08'0 0.0
2018-Jul-18 11:59N 29°49' W 092°08'0 0.0
2018-Jul-18 11:26N 29°49' W 092°08'0 0.0
2018-Jul-18 10:29N 29°49' W 092°08'0 0.0
2018-Jul-18 09:59N 29°49' W 092°08'0 0.0
2018-Jul-18 09:29N 29°49' W 092°08'0 0.0
2018-Jul-18 08:59N 29°49' W 092°08'0 0.2
2018-Jul-18 08:30N 29°49' W 092°08'0 0.0
2018-Jul-18 08:00N 29°49' W 092°08'0 0.0
2018-Jul-18 07:30N 29°49' W 092°08'0 0.0
2018-Jul-18 07:00N 29°49' W 092°08'0 0.0
2018-Jul-18 06:30N 29°49' W 092°08'0 0.0
2018-Jul-18 06:00N 29°49' W 092°08'0 0.0
2018-Jul-18 05:30N 29°49' W 092°08'0 0.0
2018-Jul-18 05:00N 29°49' W 092°08'0 0.0
2018-Jul-18 04:30N 29°49' W 092°08'0 0.0
2018-Jul-18 04:00N 29°49' W 092°08'0 0.0
2018-Jul-18 03:30N 29°49' W 092°08'0 0.0
2018-Jul-18 03:00N 29°49' W 092°08'1 2.5
2018-Jul-18 02:30N 29°48' W 092°08'3 5.1
2018-Jul-18 02:00N 29°46' W 092°10'4 8.8
2018-Jul-18 01:30N 29°44' W 092°15'4 8.6
2018-Jul-18 01:00N 29°40' W 092°16'0 0.0
2018-Jul-16 17:43N 29°39' W 092°16'2 8.9
2018-Jul-16 17:30N 29°41' W 092°15'5 9.0
2018-Jul-16 17:00N 29°45' W 092°12'4 7.8
2018-Jul-16 16:30N 29°47' W 092°09'2 4.2
2018-Jul-16 15:59N 29°49' W 092°08'0 0.0
2018-Jul-16 15:29N 29°49' W 092°08'0 0.0
2018-Jul-16 14:59N 29°49' W 092°08'0 0.0
2018-Jul-16 14:29N 29°49' W 092°08'0 0.0
2018-Jul-16 13:59N 29°49' W 092°08'0 0.0
2018-Jul-16 13:29N 29°49' W 092°08'0 0.0
2018-Jul-16 12:59N 29°49' W 092°08'0 0.0
2018-Jul-16 12:29N 29°49' W 092°08'0 0.0
2018-Jul-16 11:59N 29°49' W 092°08'0 0.0
2018-Jul-16 11:29N 29°49' W 092°08'0 0.0
2018-Jul-16 10:59N 29°49' W 092°08'0 0.0
2018-Jul-16 10:29N 29°49' W 092°08'0 0.0
2018-Jul-16 09:59N 29°49' W 092°08'0 0.0
2018-Jul-16 09:29N 29°49' W 092°08'0 0.0
2018-Jul-16 08:59N 29°49' W 092°08'1 2.1
2018-Jul-16 08:30N 29°48' W 092°08'3 6.5
2018-Jul-16 08:00N 29°46' W 092°11'5 9.5
2018-Jul-16 07:30N 29°43' W 092°15'5 9.6
2018-Jul-16 06:56N 29°37' W 092°16'4 0.8
2018-Jul-16 02:18N 29°34' W 092°18'3 6.9
2018-Jul-16 01:53N 29°37' W 092°17'3 7.4
2018-Jul-16 01:28N 29°40' W 092°15'4 8.5
2018-Jul-16 01:01N 29°44' W 092°15'5 9.2
2018-Jul-16 00:30N 29°46' W 092°10'3 5.0
2018-Jul-16 00:00N 29°48' W 092°08'1 2.4
2018-Jul-15 23:29N 29°49' W 092°08'0 0.0
2018-Jul-14 00:25N 29°49' W 092°08'0 0.0
2018-Jul-13 23:58N 29°49' W 092°08'1 3.0
2018-Jul-13 23:31N 29°48' W 092°08'3 5.6
2018-Jul-13 23:00N 29°46' W 092°11'4 8.4
2018-Jul-13 22:31N 29°44' W 092°15'4 8.0
2018-Jul-13 22:00N 29°40' W 092°15'2 0.1
2018-Jul-13 00:33N 29°38' W 092°16'1 9.5
2018-Jul-13 00:29N 29°39' W 092°16'4 9.0
2018-Jul-13 00:00N 29°43' W 092°15'510.3
2018-Jul-12 23:30N 29°46' W 092°10'3 6.9
2018-Jul-12 23:01N 29°49' W 092°08'0 0.4
2018-Jul-12 22:30N 29°49' W 092°08'0 0.0
2018-Jul-12 22:00N 29°49' W 092°08'0 0.0
2018-Jul-12 21:30N 29°49' W 092°08'0 0.0
2018-Jul-12 21:00N 29°49' W 092°08'0 0.0
2018-Jul-12 20:30N 29°49' W 092°08'0 0.0
2018-Jul-12 20:00N 29°49' W 092°08'0 0.0
2018-Jul-12 19:30N 29°49' W 092°08'0 0.0
2018-Jul-12 19:00N 29°49' W 092°08'0 0.0
2018-Jul-12 18:30N 29°49' W 092°08'0 0.0
2018-Jul-12 18:00N 29°49' W 092°08'0 0.0
2018-Jul-12 17:30N 29°49' W 092°08'0 0.0
2018-Jul-12 17:00N 29°49' W 092°08'0 0.0
2018-Jul-12 16:30N 29°49' W 092°08'0 0.0
2018-Jul-12 16:00N 29°49' W 092°08'0 0.0
2018-Jul-12 15:30N 29°49' W 092°08'0 0.0
2018-Jul-12 15:00N 29°49' W 092°08'0 0.0
2018-Jul-12 14:30N 29°49' W 092°08'0 0.0
2018-Jul-12 14:00N 29°49' W 092°08'0 0.0
2018-Jul-12 13:30N 29°49' W 092°08'0 0.0
2018-Jul-12 13:00N 29°49' W 092°08'0 0.0
2018-Jul-12 12:30N 29°49' W 092°08'0 0.0
2018-Jul-12 12:00N 29°49' W 092°08'0 0.0
2018-Jul-12 11:27N 29°49' W 092°08'0 0.0
2018-Jul-12 11:00N 29°49' W 092°08'0 0.0
2018-Jul-12 10:30N 29°49' W 092°08'0 0.0
2018-Jul-12 10:00N 29°49' W 092°08'0 0.0
2018-Jul-12 09:30N 29°49' W 092°08'0 0.0
2018-Jul-12 09:00N 29°49' W 092°08'0 0.0
2018-Jul-12 08:30N 29°49' W 092°08'0 0.0
2018-Jul-12 08:00N 29°49' W 092°08'0 0.0
2018-Jul-12 07:27N 29°49' W 092°08'0 0.0
2018-Jul-12 07:00N 29°49' W 092°08'0 0.0
2018-Jul-12 06:30N 29°49' W 092°08'0 0.0
2018-Jul-12 06:00N 29°49' W 092°08'0 0.0
2018-Jul-12 05:30N 29°49' W 092°08'0 0.0
2018-Jul-12 05:00N 29°49' W 092°08'0 0.0
2018-Jul-12 04:30N 29°49' W 092°08'0 0.0
2018-Jul-12 03:54N 29°49' W 092°08'0 0.0
2018-Jul-12 03:30N 29°49' W 092°08'0 0.0
2018-Jul-12 03:00N 29°49' W 092°08'0 0.0
2018-Jul-12 02:30N 29°49' W 092°08'0 0.0
2018-Jul-12 02:00N 29°49' W 092°08'0 0.0
2018-Jul-12 01:27N 29°49' W 092°08'2 3.5
2018-Jul-12 01:00N 29°48' W 092°08'3 6.8
2018-Jul-12 00:30N 29°46' W 092°12'3 6.4
2018-Jul-12 00:00N 29°44' W 092°14'4 8.0
2018-Jul-11 23:30N 29°40' W 092°15'3 6.9
2018-Jul-11 23:00N 29°37' W 092°17'1 0.0
2018-Jul-10 16:46N 29°37' W 092°16'3 9.2
2018-Jul-10 16:30N 29°40' W 092°15'5 9.4
2018-Jul-10 16:00N 29°44' W 092°14'510.0
2018-Jul-10 15:31N 29°47' W 092°09'3 5.4
2018-Jul-10 15:00N 29°49' W 092°08'0 0.0
2018-Jul-10 14:30N 29°49' W 092°08'0 0.0
2018-Jul-10 14:00N 29°49' W 092°08'0 0.0
2018-Jul-10 13:30N 29°49' W 092°08'0 0.0
2018-Jul-10 13:00N 29°49' W 092°08'0 0.0
2018-Jul-10 12:30N 29°49' W 092°08'0 0.0
2018-Jul-10 12:00N 29°49' W 092°08'0 0.0
2018-Jul-10 11:30N 29°49' W 092°08'0 0.0
2018-Jul-10 11:00N 29°49' W 092°08'0 0.0
2018-Jul-10 10:30N 29°49' W 092°08'0 0.0
2018-Jul-10 10:00N 29°49' W 092°08'0 0.0
2018-Jul-10 09:30N 29°49' W 092°08'0 0.0
2018-Jul-10 09:00N 29°49' W 092°08'0 0.0
2018-Jul-10 08:30N 29°49' W 092°08'0 0.0
2018-Jul-10 08:00N 29°49' W 092°08'0 0.0
2018-Jul-10 07:30N 29°49' W 092°08'0 0.0
2018-Jul-10 07:00N 29°49' W 092°08'0 0.1
2018-Jul-10 06:28N 29°49' W 092°08'2 4.3
2018-Jul-10 06:00N 29°47' W 092°09'3 6.2
2018-Jul-10 05:30N 29°46' W 092°12'4 8.4
2018-Jul-10 04:59N 29°42' W 092°15'4 8.1
2018-Jul-10 04:30N 29°38' W 092°16'1 0.1
2018-Jul-09 05:53N 29°37' W 092°16'3 7.7
2018-Jul-09 05:30N 29°40' W 092°15'4 8.1
2018-Jul-09 05:00N 29°44' W 092°14'5 9.3
2018-Jul-09 04:30N 29°47' W 092°10'2 4.5
2018-Jul-09 04:00N 29°48' W 092°08'  
Track history (hours):
 
Tides and Currents Weather Stations Pressure Air Temp Water Temp Dewpoint Dewpoint Depression Visibility Wind Speed Wind Dir Waves Ship Positions

Albert J Bourg

Owner: Alpha VesselCo, LLC, Suffolk, VA. More information available from US FCC via Universal Licensing System and Coast Guard Vessel Documentation Center.

Last reported at 2018-Jul-18 16:13 UTC. Time now 2018-Jul-19 13:02 UTC.
Position N 29°35' W 092°18'.

Length 49 m; draft 3 m.

Type: Fishing. MMSI: 367088240.

Date/timePositionNaut miles runAvg speedWind from/ knotsBaromVisibWave heightAir tempDewpointWater temp
2018-Jul-18 16:13N 29°35' W 092°18'3 7.7
2018-Jul-18 15:50N 29°37' W 092°17'3 8.2
2018-Jul-18 15:29N 29°40' W 092°15'4 8.6
2018-Jul-18 15:00N 29°44' W 092°15'510.0
2018-Jul-18 14:31N 29°47' W 092°10'3 3.0
2018-Jul-18 13:29N 29°49' W 092°08'0 0.0
2018-Jul-18 12:59N 29°49' W 092°08'0 0.0
2018-Jul-18 12:29N 29°49' W 092°08'0 0.0
2018-Jul-18 11:59N 29°49' W 092°08'0 0.0
2018-Jul-18 11:26N 29°49' W 092°08'0 0.0
2018-Jul-18 10:29N 29°49' W 092°08'0 0.0
2018-Jul-18 09:59N 29°49' W 092°08'0 0.0
2018-Jul-18 09:29N 29°49' W 092°08'0 0.0
2018-Jul-18 08:59N 29°49' W 092°08'0 0.2
2018-Jul-18 08:30N 29°49' W 092°08'0 0.0
2018-Jul-18 08:00N 29°49' W 092°08'0 0.0
2018-Jul-18 07:30N 29°49' W 092°08'0 0.0
2018-Jul-18 07:00N 29°49' W 092°08'0 0.0
2018-Jul-18 06:30N 29°49' W 092°08'0 0.0
2018-Jul-18 06:00N 29°49' W 092°08'0 0.0
2018-Jul-18 05:30N 29°49' W 092°08'0 0.0
2018-Jul-18 05:00N 29°49' W 092°08'0 0.0
2018-Jul-18 04:30N 29°49' W 092°08'0 0.0
2018-Jul-18 04:00N 29°49' W 092°08'0 0.0
2018-Jul-18 03:30N 29°49' W 092°08'0 0.0
2018-Jul-18 03:00N 29°49' W 092°08'1 2.5
2018-Jul-18 02:30N 29°48' W 092°08'3 5.1
2018-Jul-18 02:00N 29°46' W 092°10'4 8.8
2018-Jul-18 01:30N 29°44' W 092°15'4 8.6
2018-Jul-18 01:00N 29°40' W 092°16'0 0.0
2018-Jul-16 17:43N 29°39' W 092°16'2 8.9
2018-Jul-16 17:30N 29°41' W 092°15'5 9.0
2018-Jul-16 17:00N 29°45' W 092°12'4 7.8
2018-Jul-16 16:30N 29°47' W 092°09'2 4.2
2018-Jul-16 15:59N 29°49' W 092°08'0 0.0
2018-Jul-16 15:29N 29°49' W 092°08'0 0.0
2018-Jul-16 14:59N 29°49' W 092°08'0 0.0
2018-Jul-16 14:29N 29°49' W 092°08'0 0.0
2018-Jul-16 13:59N 29°49' W 092°08'0 0.0
2018-Jul-16 13:29N 29°49' W 092°08'0 0.0
2018-Jul-16 12:59N 29°49' W 092°08'0 0.0
2018-Jul-16 12:29N 29°49' W 092°08'0 0.0
2018-Jul-16 11:59N 29°49' W 092°08'0 0.0
2018-Jul-16 11:29N 29°49' W 092°08'0 0.0
2018-Jul-16 10:59N 29°49' W 092°08'0 0.0
2018-Jul-16 10:29N 29°49' W 092°08'0 0.0
2018-Jul-16 09:59N 29°49' W 092°08'0 0.0
2018-Jul-16 09:29N 29°49' W 092°08'0 0.0
2018-Jul-16 08:59N 29°49' W 092°08'1 2.1
2018-Jul-16 08:30N 29°48' W 092°08'3 6.5
2018-Jul-16 08:00N 29°46' W 092°11'5 9.5
2018-Jul-16 07:30N 29°43' W 092°15'5 9.6
2018-Jul-16 06:56N 29°37' W 092°16'4 0.8
2018-Jul-16 02:18N 29°34' W 092°18'3 6.9
2018-Jul-16 01:53N 29°37' W 092°17'3 7.4
2018-Jul-16 01:28N 29°40' W 092°15'4 8.5
2018-Jul-16 01:01N 29°44' W 092°15'5 9.2
2018-Jul-16 00:30N 29°46' W 092°10'3 5.0
2018-Jul-16 00:00N 29°48' W 092°08'1 2.4
2018-Jul-15 23:29N 29°49' W 092°08'0 0.0
2018-Jul-14 00:25N 29°49' W 092°08'0 0.0
2018-Jul-13 23:58N 29°49' W 092°08'1 3.0
2018-Jul-13 23:31N 29°48' W 092°08'3 5.6
2018-Jul-13 23:00N 29°46' W 092°11'4 8.4
2018-Jul-13 22:31N 29°44' W 092°15'4 8.0
2018-Jul-13 22:00N 29°40' W 092°15'2 0.1
2018-Jul-13 00:33N 29°38' W 092°16'1 9.5
2018-Jul-13 00:29N 29°39' W 092°16'4 9.0
2018-Jul-13 00:00N 29°43' W 092°15'510.3
2018-Jul-12 23:30N 29°46' W 092°10'3 6.9
2018-Jul-12 23:01N 29°49' W 092°08'0 0.4
2018-Jul-12 22:30N 29°49' W 092°08'0 0.0
2018-Jul-12 22:00N 29°49' W 092°08'0 0.0
2018-Jul-12 21:30N 29°49' W 092°08'0 0.0
2018-Jul-12 21:00N 29°49' W 092°08'0 0.0
2018-Jul-12 20:30N 29°49' W 092°08'0 0.0
2018-Jul-12 20:00N 29°49' W 092°08'0 0.0
2018-Jul-12 19:30N 29°49' W 092°08'0 0.0
2018-Jul-12 19:00N 29°49' W 092°08'0 0.0
2018-Jul-12 18:30N 29°49' W 092°08'0 0.0
2018-Jul-12 18:00N 29°49' W 092°08'0 0.0
2018-Jul-12 17:30N 29°49' W 092°08'0 0.0
2018-Jul-12 17:00N 29°49' W 092°08'0 0.0
2018-Jul-12 16:30N 29°49' W 092°08'0 0.0
2018-Jul-12 16:00N 29°49' W 092°08'0 0.0
2018-Jul-12 15:30N 29°49' W 092°08'0 0.0
2018-Jul-12 15:00N 29°49' W 092°08'0 0.0
2018-Jul-12 14:30N 29°49' W 092°08'0 0.0
2018-Jul-12 14:00N 29°49' W 092°08'0 0.0
2018-Jul-12 13:30N 29°49' W 092°08'0 0.0
2018-Jul-12 13:00N 29°49' W 092°08'0 0.0
2018-Jul-12 12:30N 29°49' W 092°08'0 0.0
2018-Jul-12 12:00N 29°49' W 092°08'0 0.0
2018-Jul-12 11:27N 29°49' W 092°08'0 0.0
2018-Jul-12 11:00N 29°49' W 092°08'0 0.0
2018-Jul-12 10:30N 29°49' W 092°08'0 0.0
2018-Jul-12 10:00N 29°49' W 092°08'0 0.0
2018-Jul-12 09:30N 29°49' W 092°08'0 0.0
2018-Jul-12 09:00N 29°49' W 092°08'0 0.0
2018-Jul-12 08:30N 29°49' W 092°08'0 0.0
2018-Jul-12 08:00N 29°49' W 092°08'0 0.0
2018-Jul-12 07:27N 29°49' W 092°08'0 0.0
2018-Jul-12 07:00N 29°49' W 092°08'0 0.0
2018-Jul-12 06:30N 29°49' W 092°08'0 0.0
2018-Jul-12 06:00N 29°49' W 092°08'0 0.0
2018-Jul-12 05:30N 29°49' W 092°08'0 0.0
2018-Jul-12 05:00N 29°49' W 092°08'0 0.0
2018-Jul-12 04:30N 29°49' W 092°08'0 0.0
2018-Jul-12 03:54N 29°49' W 092°08'0 0.0
2018-Jul-12 03:30N 29°49' W 092°08'0 0.0
2018-Jul-12 03:00N 29°49' W 092°08'0 0.0
2018-Jul-12 02:30N 29°49' W 092°08'0 0.0
2018-Jul-12 02:00N 29°49' W 092°08'0 0.0
2018-Jul-12 01:27N 29°49' W 092°08'2 3.5
2018-Jul-12 01:00N 29°48' W 092°08'3 6.8
2018-Jul-12 00:30N 29°46' W 092°12'3 6.4
2018-Jul-12 00:00N 29°44' W 092°14'4 8.0
2018-Jul-11 23:30N 29°40' W 092°15'3 6.9
2018-Jul-11 23:00N 29°37' W 092°17'1 0.0
2018-Jul-10 16:46N 29°37' W 092°16'3 9.2
2018-Jul-10 16:30N 29°40' W 092°15'5 9.4
2018-Jul-10 16:00N 29°44' W 092°14'510.0
2018-Jul-10 15:31N 29°47' W 092°09'3 5.4
2018-Jul-10 15:00N 29°49' W 092°08'0 0.0
2018-Jul-10 14:30N 29°49' W 092°08'0 0.0
2018-Jul-10 14:00N 29°49' W 092°08'0 0.0
2018-Jul-10 13:30N 29°49' W 092°08'0 0.0
2018-Jul-10 13:00N 29°49' W 092°08'0 0.0
2018-Jul-10 12:30N 29°49' W 092°08'0 0.0
2018-Jul-10 12:00N 29°49' W 092°08'0 0.0
2018-Jul-10 11:30N 29°49' W 092°08'0 0.0
2018-Jul-10 11:00N 29°49' W 092°08'0 0.0
2018-Jul-10 10:30N 29°49' W 092°08'0 0.0
2018-Jul-10 10:00N 29°49' W 092°08'0 0.0
2018-Jul-10 09:30N 29°49' W 092°08'0 0.0
2018-Jul-10 09:00N 29°49' W 092°08'0 0.0
2018-Jul-10 08:30N 29°49' W 092°08'0 0.0
2018-Jul-10 08:00N 29°49' W 092°08'0 0.0
2018-Jul-10 07:30N 29°49' W 092°08'0 0.0
2018-Jul-10 07:00N 29°49' W 092°08'0 0.1
2018-Jul-10 06:28N 29°49' W 092°08'2 4.3
2018-Jul-10 06:00N 29°47' W 092°09'3 6.2
2018-Jul-10 05:30N 29°46' W 092°12'4 8.4
2018-Jul-10 04:59N 29°42' W 092°15'4 8.1
2018-Jul-10 04:30N 29°38' W 092°16'1 0.1
2018-Jul-09 05:53N 29°37' W 092°16'3 7.7
2018-Jul-09 05:30N 29°40' W 092°15'4 8.1
2018-Jul-09 05:00N 29°44' W 092°14'5 9.3
2018-Jul-09 04:30N 29°47' W 092°10'2 4.5
2018-Jul-09 04:00N 29°48' W 092°08'  

Dump ship's entire track history